KQSI

2017-09-24 03:00:06Z

Plaintext report →

Temperature
High30.3 °C86.5 °F
Current27.8 °C82.0 °F
Low27.3 °C81.1 °F
Feels Like31.6 °C88.9 °F
Dewpoint24.1 °C75.4 °F
Winds
Speed and Direction1.8 m/s4.0 mi/h 3 kn267 °
Gust0.0 m/s0.00 mi/h 0 kn
SquallUnavailable
Pressure and Humidity
Pressure At Field Level1004.7 mb29.7 in
Pressure At Sea Level1009.6 mb29.8 in
Pressure Trend0.8 mb 0.0 in
Pressure Tendency 2
Humidity80 %

Ceilometer Alarms / Warnings:

Ceilometer Data Missing!
Historical

Additional Information:

  METAR KQSI 240300Z AUTO 27003KT M1/4SM NCD 28/24 A2967 RMK AO2 SLP096
  10303 20273 52008 PWINO $=    
Cloud Cover
Layer 1 Undetected
Layer 2 Undetected
Layer 3 Undetected
Winds
2-minute Winds
Minimum1.1 m/s2.46 mi/h 2 kn265 °
Average1.7 m/s3.80 mi/h 3 kn271 °
Maximum2.4 m/s5.37 mi/h 4 kn282 °
10-minute Winds
Minimum0.9 m/s2.01 mi/h 1 kn259 °
Average1.6 m/s3.58 mi/h 3 kn273 °
Maximum2.4 m/s5.37 mi/h 4 kn282 °
Precipitation
IntensityUnavailable
Rainfall
1-hour Total0.00 mm0.00 in
3-hour Total0.00 mm0.00 in
6-hour Total0.00 mm0.00 in
24-hour Total0.00 mm0.00 in
Precipitation
1-hour TotalUnavailable
3-hour TotalUnavailable
6-hour TotalUnavailable
24-hour TotalUnavailable